Time;durP1;ratioP1;P1;durP2;ratioP2;P2;SDS_P1;SDS_P2;PMS_P1;PMS_P2;Temp;Humidity;BMP_temperature;BMP_pressure;BME280_temperature;BME280_humidity;BME280_pressure;Samples;Min_cycle;Max_cycle;Signal;HPM_P1;HPM_P2
2021/09/16 00:00:08;;;;;;;6.97;1.83;;;15.50;88.70;;;;;;5055799;28;20129;-76
2021/09/16 00:02:33;;;;;;;5.40;1.38;;;15.40;88.60;;;;;;5055769;28;20079;-78
2021/09/16 00:04:59;;;;;;;7.07;1.63;;;15.40;88.70;;;;;;5054467;28;20036;-77
2021/09/16 00:07:25;;;;;;;7.18;2.00;;;15.40;88.90;;;;;;5055773;28;20025;-77
2021/09/16 00:09:50;;;;;;;5.60;1.10;;;15.40;89.00;;;;;;5055986;28;20017;-78
2021/09/16 00:12:16;;;;;;;5.25;1.20;;;15.30;89.00;;;;;;5054788;28;20033;-76
2021/09/16 00:14:42;;;;;;;5.50;1.48;;;15.30;89.10;;;;;;5054839;28;20108;-76
2021/09/16 00:17:10;;;;;;;5.10;1.48;;;15.30;89.30;;;;;;5054149;28;20030;-77
2021/09/16 00:19:36;;;;;;;6.65;1.60;;;15.20;89.30;;;;;;5054708;28;20032;-76
2021/09/16 00:22:02;;;;;;;4.68;1.50;;;15.20;89.40;;;;;;5055124;28;20017;-76
2021/09/16 00:24:27;;;;;;;3.65;1.23;;;15.20;89.60;;;;;;5055039;28;20032;-76
2021/09/16 00:26:53;;;;;;;5.03;1.38;;;15.20;89.60;;;;;;5054329;28;20025;-76
2021/09/16 00:29:18;;;;;;;8.07;1.60;;;15.20;89.70;;;;;;5053956;28;20354;-77
2021/09/16 00:31:44;;;;;;;7.53;1.60;;;15.10;89.70;;;;;;5054322;28;20021;-77
2021/09/16 00:34:10;;;;;;;8.38;1.67;;;15.10;90.00;;;;;;5053759;28;20032;-77
2021/09/16 00:36:37;;;;;;;7.78;1.42;;;15.10;90.00;;;;;;5055710;28;20031;-76
2021/09/16 00:39:03;;;;;;;3.92;1.15;;;15.10;90.00;;;;;;5054156;28;20017;-77
2021/09/16 00:41:29;;;;;;;7.60;1.23;;;15.10;90.10;;;;;;5053879;28;20074;-77
2021/09/16 00:43:58;;;;;;;10.43;1.80;;;15.00;90.10;;;;;;5054890;28;20466;-77
2021/09/16 00:46:24;;;;;;;7.97;1.67;;;15.00;90.10;;;;;;5055210;28;20056;-77
2021/09/16 00:48:50;;;;;;;5.60;1.40;;;15.00;90.10;;;;;;5053840;28;20461;-77
2021/09/16 00:51:15;;;;;;;6.05;1.60;;;15.00;90.20;;;;;;5054000;28;20021;-77
2021/09/16 00:53:41;;;;;;;6.22;1.40;;;14.90;90.20;;;;;;5054453;28;20423;-76
2021/09/16 00:56:08;;;;;;;5.03;1.30;;;14.90;90.30;;;;;;5055338;28;20061;-76
2021/09/16 00:58:38;;;;;;;6.65;1.45;;;14.90;90.30;;;;;;5054250;28;20025;-76
2021/09/16 01:01:04;;;;;;;8.93;1.95;;;14.90;90.40;;;;;;5053842;28;20021;-77
2021/09/16 01:03:30;;;;;;;5.85;1.40;;;14.90;90.40;;;;;;5054774;28;20025;-77
2021/09/16 01:05:56;;;;;;;4.57;1.13;;;14.90;90.40;;;;;;5054403;28;20048;-77
2021/09/16 01:08:22;;;;;;;7.15;1.65;;;15.00;90.40;;;;;;5054713;28;20017;-76
2021/09/16 01:10:49;;;;;;;6.85;1.63;;;15.00;90.40;;;;;;5053596;28;20017;-76
2021/09/16 01:13:15;;;;;;;3.47;1.33;;;15.00;90.40;;;;;;5053495;28;20013;-76
2021/09/16 01:15:41;;;;;;;4.63;1.33;;;15.00;90.40;;;;;;5055167;28;20021;-76
2021/09/16 01:18:07;;;;;;;5.85;1.40;;;15.10;90.40;;;;;;5054773;28;20032;-77
2021/09/16 01:20:32;;;;;;;4.65;1.23;;;15.10;90.40;;;;;;5055028;28;20355;-78
2021/09/16 01:22:58;;;;;;;4.65;1.10;;;15.10;90.30;;;;;;5053335;28;20028;-76
2021/09/16 01:25:26;;;;;;;5.22;1.00;;;15.10;90.30;;;;;;5055129;28;20036;-77
2021/09/16 01:27:53;;;;;;;3.78;1.08;;;15.10;90.20;;;;;;5052959;28;20032;-77
2021/09/16 01:30:19;;;;;;;3.90;1.08;;;15.10;90.30;;;;;;5052706;28;20017;-76
2021/09/16 01:32:44;;;;;;;6.05;1.30;;;15.00;90.30;;;;;;5052853;28;20094;-77
2021/09/16 01:35:10;;;;;;;6.30;1.60;;;15.00;90.30;;;;;;5053892;28;20029;-76
2021/09/16 01:37:36;;;;;;;4.53;1.10;;;15.00;90.40;;;;;;5054510;28;20025;-77
2021/09/16 01:40:02;;;;;;;4.47;1.13;;;15.00;90.40;;;;;;5053576;28;20036;-76
2021/09/16 01:42:27;;;;;;;5.80;1.10;;;15.00;90.50;;;;;;5052530;28;20151;-76
2021/09/16 01:44:53;;;;;;;3.40;1.13;;;14.90;90.50;;;;;;5052311;28;20075;-77
2021/09/16 01:47:18;;;;;;;3.20;1.10;;;14.90;90.60;;;;;;5052315;28;20023;-77
2021/09/16 01:49:44;;;;;;;8.43;1.50;;;14.90;90.70;;;;;;5052087;28;20408;-77
2021/09/16 01:52:10;;;;;;;5.03;1.48;;;14.90;90.80;;;;;;5055855;28;20033;-77
2021/09/16 01:54:36;;;;;;;6.80;1.35;;;14.90;90.80;;;;;;5068921;28;20040;-76
2021/09/16 01:57:01;;;;;;;4.90;1.40;;;14.80;90.90;;;;;;5054664;28;20024;-76
2021/09/16 01:59:27;;;;;;;3.97;1.35;;;14.80;90.90;;;;;;5051935;28;20117;-75
2021/09/16 02:01:52;;;;;;;7.32;1.52;;;14.80;91.00;;;;;;5051327;28;20453;-77
2021/09/16 02:04:18;;;;;;;3.35;1.20;;;14.70;91.10;;;;;;5052947;28;20481;-76
2021/09/16 02:06:44;;;;;;;6.60;1.40;;;14.70;91.40;;;;;;5051913;28;20075;-76
2021/09/16 02:09:09;;;;;;;6.10;1.60;;;14.70;91.20;;;;;;5051811;28;20028;-76
2021/09/16 02:11:35;;;;;;;6.75;1.50;;;14.70;91.20;;;;;;5053145;28;20018;-76
2021/09/16 02:14:00;;;;;;;6.85;2.60;;;14.70;91.20;;;;;;5052272;28;20032;-76
2021/09/16 02:16:26;;;;;;;7.20;1.73;;;14.70;91.20;;;;;;5050998;28;20025;-78
2021/09/16 02:18:52;;;;;;;10.05;1.65;;;14.70;91.30;;;;;;5050903;28;20043;-77
2021/09/16 02:21:17;;;;;;;6.72;1.60;;;14.60;91.30;;;;;;5052086;28;20048;-77
2021/09/16 02:23:43;;;;;;;6.57;1.95;;;14.60;91.40;;;;;;5052274;28;20025;-76
2021/09/16 02:26:08;;;;;;;4.47;2.13;;;14.60;91.50;;;;;;5052398;28;20465;-77
2021/09/16 02:28:34;;;;;;;6.05;1.67;;;14.60;91.50;;;;;;5014443;28;1078215;-77
2021/09/16 02:31:00;;;;;;;6.22;1.90;;;14.60;91.50;;;;;;5053177;28;20485;-77
2021/09/16 02:33:25;;;;;;;6.30;1.90;;;14.60;91.50;;;;;;5053762;28;20021;-77
2021/09/16 02:35:53;;;;;;;4.93;1.50;;;14.70;91.60;;;;;;5053180;28;20027;-77
2021/09/16 02:38:20;;;;;;;7.20;2.13;;;14.70;91.50;;;;;;5051976;28;20029;-76
2021/09/16 02:40:46;;;;;;;6.47;2.22;;;14.70;91.50;;;;;;5053554;28;20489;-77
2021/09/16 02:43:12;;;;;;;7.38;2.25;;;14.70;91.50;;;;;;5053583;28;20033;-77
2021/09/16 02:45:37;;;;;;;5.65;2.05;;;14.70;91.40;;;;;;5052467;28;20071;-77
2021/09/16 02:48:03;;;;;;;6.93;1.67;;;14.80;91.40;;;;;;5052492;28;20076;-78
2021/09/16 02:50:29;;;;;;;5.85;1.80;;;14.80;91.40;;;;;;5052936;28;20025;-77
2021/09/16 02:52:54;;;;;;;5.93;1.52;;;14.90;91.30;;;;;;5052710;28;20056;-77
2021/09/16 02:55:20;;;;;;;4.05;1.42;;;14.90;91.30;;;;;;5053034;28;20031;-77
2021/09/16 02:57:46;;;;;;;6.80;1.45;;;14.90;91.20;;;;;;5052880;28;20477;-77
2021/09/16 03:00:12;;;;;;;3.53;1.60;;;15.00;91.20;;;;;;5051290;28;20536;-77
2021/09/16 03:02:38;;;;;;;7.80;1.88;;;15.00;91.20;;;;;;5051482;28;20488;-77
2021/09/16 03:05:04;;;;;;;10.40;1.80;;;15.00;91.20;;;;;;5051088;28;20045;-76
2021/09/16 03:07:29;;;;;;;8.35;2.38;;;15.00;91.10;;;;;;5052294;28;20024;-77
2021/09/16 03:09:55;;;;;;;5.57;1.98;;;15.00;91.40;;;;;;5051544;28;20426;-78
2021/09/16 03:12:21;;;;;;;4.40;1.75;;;15.00;91.10;;;;;;5051983;28;20025;-76
2021/09/16 03:14:46;;;;;;;7.30;3.22;;;15.10;91.10;;;;;;5049932;28;20453;-77
2021/09/16 03:17:12;;;;;;;7.07;1.77;;;15.00;91.00;;;;;;5051054;28;20115;-77
2021/09/16 03:19:37;;;;;;;4.30;1.40;;;15.10;91.00;;;;;;5052231;28;20087;-78
2021/09/16 03:22:03;;;;;;;8.00;1.67;;;15.00;91.00;;;;;;5050982;28;20039;-78
2021/09/16 03:24:29;;;;;;;7.15;1.60;;;15.10;91.20;;;;;;5051089;28;20029;-79
2021/09/16 03:26:55;;;;;;;6.30;1.77;;;15.10;91.20;;;;;;5051258;28;20017;-78
2021/09/16 03:29:20;;;;;;;5.43;1.80;;;15.00;91.30;;;;;;5050830;28;20401;-78
2021/09/16 03:31:46;;;;;;;4.15;1.80;;;15.00;91.40;;;;;;5051143;28;20041;-78
2021/09/16 03:34:11;;;;;;;5.97;1.88;;;15.10;91.50;;;;;;5052537;28;20035;-78
2021/09/16 03:36:37;;;;;;;5.75;1.63;;;15.10;91.50;;;;;;5052968;28;20029;-77
2021/09/16 03:39:03;;;;;;;6.70;1.67;;;15.10;91.60;;;;;;5052476;28;20029;-78
2021/09/16 03:41:29;;;;;;;6.00;1.65;;;15.20;91.70;;;;;;5051297;28;20566;-79
2021/09/16 03:43:54;;;;;;;6.55;1.80;;;15.10;91.70;;;;;;5052063;28;20112;-77
2021/09/16 03:46:20;;;;;;;5.13;1.60;;;15.10;91.70;;;;;;5051042;28;20029;-78
2021/09/16 03:48:45;;;;;;;7.10;2.00;;;15.10;91.80;;;;;;5052389;28;20071;-77
2021/09/16 03:51:11;;;;;;;7.05;2.13;;;15.10;91.80;;;;;;5053008;28;20056;-79
2021/09/16 03:53:37;;;;;;;5.55;2.00;;;15.20;91.90;;;;;;5056666;28;20029;-79
2021/09/16 03:56:03;;;;;;;4.78;1.58;;;15.20;91.90;;;;;;5066341;28;20025;-78
2021/09/16 03:58:29;;;;;;;9.52;2.50;;;15.20;91.90;;;;;;5053908;28;20027;-77
2021/09/16 04:00:54;;;;;;;3.95;1.95;;;15.20;92.00;;;;;;5055227;28;20088;-77
2021/09/16 04:03:20;;;;;;;6.20;2.00;;;15.20;92.10;;;;;;5053126;28;20079;-79
2021/09/16 04:05:46;;;;;;;9.23;2.20;;;15.10;92.10;;;;;;5051423;28;20465;-79
2021/09/16 04:08:11;;;;;;;5.82;1.70;;;15.10;92.20;;;;;;5052386;28;20025;-79
2021/09/16 04:10:38;;;;;;;6.10;2.38;;;15.10;92.30;;;;;;5051399;28;20124;-78
2021/09/16 04:13:03;;;;;;;9.80;2.60;;;15.00;92.30;;;;;;5051081;28;20429;-78
2021/09/16 04:15:29;;;;;;;6.38;1.90;;;15.00;92.40;;;;;;5052834;28;20127;-78
2021/09/16 04:17:54;;;;;;;7.65;1.75;;;15.00;92.50;;;;;;5052385;28;20036;-78
2021/09/16 04:20:20;;;;;;;5.90;1.70;;;15.00;92.60;;;;;;5052665;28;20430;-79
2021/09/16 04:22:46;;;;;;;8.38;1.83;;;15.00;92.70;;;;;;5051170;28;20112;-77
2021/09/16 04:25:11;;;;;;;4.25;1.70;;;15.00;92.70;;;;;;5052852;28;20355;-78
2021/09/16 04:27:37;;;;;;;5.95;1.70;;;15.00;92.70;;;;;;5056289;28;20021;-78
2021/09/16 04:30:04;;;;;;;6.15;1.45;;;15.00;92.90;;;;;;5054147;28;20033;-78
2021/09/16 04:32:30;;;;;;;9.02;1.70;;;15.00;92.80;;;;;;5054412;28;20377;-78
2021/09/16 04:34:56;;;;;;;8.32;2.00;;;15.00;92.90;;;;;;5054298;28;20073;-77
2021/09/16 04:37:21;;;;;;;5.72;1.80;;;15.00;92.90;;;;;;5055703;28;20090;-79
2021/09/16 04:39:47;;;;;;;6.72;2.03;;;15.00;92.90;;;;;;5055049;28;20024;-78
2021/09/16 04:42:12;;;;;;;6.75;1.55;;;15.00;92.90;;;;;;5053712;28;20079;-78
2021/09/16 04:44:38;;;;;;;6.07;1.50;;;15.00;92.90;;;;;;5054741;28;20474;-78
2021/09/16 04:47:11;;;;;;;4.00;1.55;;;15.10;92.90;;;;;;5053418;28;20036;-79
2021/09/16 04:49:37;;;;;;;3.75;1.40;;;15.10;92.90;;;;;;5054304;28;20358;-78
2021/09/16 04:52:02;;;;;;;4.30;1.20;;;15.10;92.90;;;;;;5056009;28;20032;-78
2021/09/16 04:54:28;;;;;;;6.32;1.35;;;15.10;92.80;;;;;;5056075;28;20029;-80
2021/09/16 04:56:53;;;;;;;7.18;1.85;;;15.10;92.90;;;;;;5054621;28;20021;-78
2021/09/16 04:59:19;;;;;;;4.00;1.60;;;15.10;92.90;;;;;;5054850;28;20025;-77
2021/09/16 05:01:45;;;;;;;7.75;1.60;;;15.10;92.80;;;;;;5054359;28;20026;-77
2021/09/16 05:04:10;;;;;;;5.35;2.05;;;15.10;92.90;;;;;;5053961;28;20117;-78
2021/09/16 05:06:36;;;;;;;5.93;1.60;;;15.10;92.80;;;;;;5055792;28;20029;-78
2021/09/16 05:09:02;;;;;;;6.25;1.65;;;15.00;92.80;;;;;;5054950;28;20182;-78
2021/09/16 05:11:27;;;;;;;6.63;1.65;;;15.00;92.80;;;;;;5054220;28;20013;-77
2021/09/16 05:13:53;;;;;;;4.68;1.73;;;15.00;92.80;;;;;;5054160;28;20160;-78
2021/09/16 05:16:19;;;;;;;3.45;1.10;;;15.00;92.80;;;;;;5053848;28;20021;-78
2021/09/16 05:18:44;;;;;;;6.93;2.25;;;15.00;92.90;;;;;;5053994;28;20465;-77
2021/09/16 05:21:11;;;;;;;5.03;1.38;;;15.00;92.80;;;;;;5053437;28;20437;-78
2021/09/16 05:23:37;;;;;;;5.35;1.35;;;15.00;92.90;;;;;;5053041;28;20079;-78
2021/09/16 05:26:02;;;;;;;4.78;1.55;;;15.10;92.90;;;;;;5053046;28;20366;-78
2021/09/16 05:28:31;;;;;;;4.18;1.60;;;15.00;92.90;;;;;;5052407;28;20053;-78
2021/09/16 05:30:57;;;;;;;5.72;1.33;;;15.00;92.90;;;;;;5052939;28;20017;-78
2021/09/16 05:33:22;;;;;;;6.22;1.98;;;15.00;92.90;;;;;;5052492;28;20036;-78
2021/09/16 05:35:48;;;;;;;8.05;1.80;;;15.00;92.90;;;;;;5054152;28;20108;-78
2021/09/16 05:38:14;;;;;;;7.10;1.80;;;15.10;92.90;;;;;;5053690;28;20032;-78
2021/09/16 05:40:39;;;;;;;4.22;1.10;;;15.10;92.90;;;;;;5053481;28;20493;-78
2021/09/16 05:43:05;;;;;;;3.80;1.50;;;15.10;92.80;;;;;;5055084;28;20223;-79
2021/09/16 05:45:30;;;;;;;6.10;2.13;;;15.10;92.80;;;;;;5053057;28;20029;-78
2021/09/16 05:47:56;;;;;;;4.82;1.52;;;15.10;92.70;;;;;;5053511;28;20086;-78
2021/09/16 05:50:22;;;;;;;6.63;1.50;;;15.10;92.70;;;;;;5055597;28;20418;-79
2021/09/16 05:52:47;;;;;;;3.75;1.30;;;15.20;92.70;;;;;;5053463;28;20088;-78
2021/09/16 05:55:13;;;;;;;7.18;1.63;;;15.10;92.70;;;;;;5052465;28;20035;-78
2021/09/16 05:57:39;;;;;;;4.82;1.55;;;15.20;92.60;;;;;;5052795;28;20025;-78
2021/09/16 06:00:08;;;;;;;12.65;1.85;;;15.20;92.60;;;;;;5053157;28;20017;-78
2021/09/16 06:02:34;;;;;;;6.10;1.27;;;15.20;92.60;;;;;;5060099;28;20021;-77
2021/09/16 06:05:00;;;;;;;9.27;2.25;;;15.20;92.50;;;;;;5064227;28;20362;-78
2021/09/16 06:07:25;;;;;;;5.55;1.55;;;15.10;92.50;;;;;;5054188;28;20342;-77
2021/09/16 06:09:51;;;;;;;3.33;1.17;;;15.10;92.50;;;;;;5052282;28;20106;-78
2021/09/16 06:12:17;;;;;;;8.98;1.80;;;15.10;92.50;;;;;;5052265;28;20021;-78
2021/09/16 06:14:43;;;;;;;4.45;1.33;;;15.00;92.60;;;;;;5052322;28;20470;-78
2021/09/16 06:17:09;;;;;;;4.78;1.20;;;15.00;92.90;;;;;;5051813;28;20476;-78
2021/09/16 06:19:35;;;;;;;5.93;1.45;;;15.10;92.60;;;;;;5052044;28;20048;-77
2021/09/16 06:22:01;;;;;;;6.55;1.33;;;15.10;92.60;;;;;;5051891;28;20029;-78
2021/09/16 06:24:27;;;;;;;5.53;1.67;;;15.10;92.60;;;;;;5046662;28;20225;-79
2021/09/16 06:26:52;;;;;;;5.55;1.45;;;15.10;92.60;;;;;;5039412;28;20481;-78
2021/09/16 06:29:18;;;;;;;5.53;1.45;;;15.20;92.70;;;;;;5039906;28;20457;-76
2021/09/16 06:31:44;;;;;;;6.68;1.60;;;15.30;92.60;;;;;;5043676;28;20032;-78
2021/09/16 06:34:09;;;;;;;6.38;1.90;;;15.30;92.40;;;;;;5041297;28;20071;-79
2021/09/16 06:36:35;;;;;;;4.93;1.50;;;15.40;92.40;;;;;;5041952;28;20017;-78
2021/09/16 06:39:01;;;;;;;9.65;1.85;;;15.30;92.30;;;;;;5050205;28;20055;-78
2021/09/16 06:41:26;;;;;;;7.60;1.45;;;15.40;92.40;;;;;;5051425;28;20034;-77
2021/09/16 06:43:55;;;;;;;6.38;1.88;;;15.40;92.40;;;;;;5051454;28;20029;-77
2021/09/16 06:46:20;;;;;;;7.57;2.42;;;15.60;92.30;;;;;;5051269;28;20103;-78
2021/09/16 06:48:46;;;;;;;6.00;1.75;;;15.80;92.00;;;;;;5051343;28;20482;-79
2021/09/16 06:51:15;;;;;;;7.10;2.05;;;16.00;91.80;;;;;;5050960;28;20021;-77
2021/09/16 06:53:40;;;;;;;5.53;2.08;;;16.10;91.40;;;;;;5052771;28;20021;-78
2021/09/16 06:56:06;;;;;;;5.03;1.67;;;16.30;91.20;;;;;;5053092;28;20075;-80
2021/09/16 06:58:31;;;;;;;5.72;1.77;;;16.40;89.30;;;;;;5050962;28;20116;-78
2021/09/16 07:00:57;;;;;;;10.23;2.25;;;16.50;89.70;;;;;;5052722;28;20595;-80
2021/09/16 07:03:23;;;;;;;6.95;2.15;;;16.50;89.70;;;;;;5051961;28;20029;-82
2021/09/16 07:05:48;;;;;;;8.43;2.28;;;16.60;89.80;;;;;;5051682;28;20047;-80
2021/09/16 07:08:14;;;;;;;7.05;2.08;;;16.70;89.90;;;;;;5051557;28;20021;-81
2021/09/16 07:10:41;;;;;;;5.85;1.52;;;16.90;89.30;;;;;;5051982;28;20368;-81
2021/09/16 07:13:10;;;;;;;8.13;2.17;;;17.00;89.10;;;;;;5052745;28;20473;-80
2021/09/16 07:15:36;;;;;;;10.40;2.53;;;17.10;88.30;;;;;;5052843;28;20021;-81
2021/09/16 07:18:04;;;;;;;10.68;2.30;;;17.30;87.90;;;;;;5052179;28;20083;-82
2021/09/16 07:20:29;;;;;;;5.82;1.80;;;17.40;87.30;;;;;;5051112;28;20021;-77
2021/09/16 07:22:55;;;;;;;10.63;1.90;;;17.50;87.40;;;;;;5051950;28;20075;-77
2021/09/16 07:25:20;;;;;;;5.82;1.50;;;17.80;87.20;;;;;;5051535;28;20037;-78
2021/09/16 07:27:47;;;;;;;5.28;1.52;;;17.90;86.60;;;;;;5051855;28;20025;-78
2021/09/16 07:30:13;;;;;;;9.48;1.70;;;18.10;85.70;;;;;;5052165;28;20423;-79
2021/09/16 07:32:39;;;;;;;5.10;1.38;;;18.20;84.80;;;;;;5053763;28;20050;-80
2021/09/16 07:35:05;;;;;;;3.30;1.35;;;18.40;84.50;;;;;;5053282;28;20386;-79
2021/09/16 07:37:31;;;;;;;6.88;1.67;;;18.50;84.10;;;;;;5052260;28;20021;-79
2021/09/16 07:39:56;;;;;;;6.30;1.63;;;18.60;83.50;;;;;;5052631;28;20358;-79
2021/09/16 07:42:23;;;;;;;7.55;1.67;;;18.80;82.80;;;;;;5051702;28;20017;-77
2021/09/16 07:44:49;;;;;;;6.97;1.45;;;18.80;81.70;;;;;;5052904;28;20040;-78
2021/09/16 07:47:14;;;;;;;6.47;1.60;;;19.00;82.10;;;;;;5051532;28;20386;-79
2021/09/16 07:49:40;;;;;;;5.45;1.27;;;19.20;82.20;;;;;;5053686;28;20029;-79
2021/09/16 07:52:06;;;;;;;6.00;1.63;;;19.40;81.40;;;;;;5051781;28;20032;-80
2021/09/16 07:54:34;;;;;;;4.15;1.35;;;19.60;80.00;;;;;;5053187;28;20029;-79
2021/09/16 07:57:02;;;;;;;6.25;1.63;;;19.70;79.50;;;;;;5053099;28;20029;-78
2021/09/16 07:59:28;;;;;;;6.15;1.75;;;19.80;79.00;;;;;;5051454;28;20029;-79
2021/09/16 08:01:56;;;;;;;7.88;1.67;;;19.90;79.10;;;;;;5055530;28;20108;-80
2021/09/16 08:04:22;;;;;;;6.88;0.98;;;20.10;78.50;;;;;;5055755;28;20128;-78
2021/09/16 08:06:48;;;;;;;4.65;1.30;;;20.20;77.40;;;;;;5064570;28;20053;-79
2021/09/16 08:09:14;;;;;;;4.97;1.55;;;20.20;76.80;;;;;;5066344;28;20438;-80
2021/09/16 08:11:39;;;;;;;5.15;1.38;;;20.20;76.60;;;;;;5056625;28;20381;-80
2021/09/16 08:14:08;;;;;;;5.03;1.23;;;20.20;77.40;;;;;;5055100;28;20031;-80
2021/09/16 08:16:35;;;;;;;5.07;1.40;;;20.30;77.20;;;;;;5054709;28;20032;-79
2021/09/16 08:19:02;;;;;;;4.43;0.98;;;20.40;77.00;;;;;;5054823;28;20044;-80
2021/09/16 08:21:27;;;;;;;4.82;1.25;;;20.50;77.20;;;;;;5054864;28;20040;-81
2021/09/16 08:23:54;;;;;;;7.50;1.10;;;20.70;77.20;;;;;;5056155;28;20381;-78
2021/09/16 08:26:20;;;;;;;6.32;1.10;;;20.80;75.60;;;;;;5055889;28;20047;-82
2021/09/16 08:28:45;;;;;;;5.63;1.40;;;20.90;75.20;;;;;;5054793;28;20029;-80
2021/09/16 08:31:11;;;;;;;5.30;1.10;;;21.10;73.60;;;;;;5054767;28;20026;-79
2021/09/16 08:33:37;;;;;;;4.13;1.02;;;21.20;73.90;;;;;;5054782;28;20025;-79
2021/09/16 08:36:03;;;;;;;3.83;1.15;;;21.20;75.30;;;;;;5054523;28;20025;-79
2021/09/16 08:38:29;;;;;;;3.10;1.15;;;21.10;74.40;;;;;;5054478;28;20024;-79
2021/09/16 08:40:58;;;;;;;4.03;1.20;;;20.80;72.60;;;;;;5054299;28;20035;-78
2021/09/16 08:43:29;;;;;;;5.55;1.17;;;20.70;73.00;;;;;;5054279;28;20094;-77
2021/09/16 08:45:55;;;;;;;9.32;1.45;;;20.70;74.50;;;;;;5054169;28;20037;-78
2021/09/16 08:48:20;;;;;;;4.85;1.23;;;20.80;74.00;;;;;;5055221;28;20021;-80
2021/09/16 08:50:47;;;;;;;8.50;1.63;;;20.80;75.00;;;;;;5055752;28;20048;-79
2021/09/16 08:53:17;;;;;;;3.35;1.10;;;20.90;72.90;;;;;;5054516;28;20108;-80
2021/09/16 08:55:45;;;;;;;2.75;1.00;;;21.10;75.10;;;;;;5056028;28;20106;-78
2021/09/16 08:58:11;;;;;;;5.15;1.33;;;21.40;75.60;;;;;;5055776;28;20021;-79
2021/09/16 09:00:37;;;;;;;3.28;1.13;;;21.70;70.90;;;;;;5055715;28;20033;-78
2021/09/16 09:03:20;;;;;;;2.58;0.75;;;21.80;72.20;;;;;;5056088;28;20021;-80
2021/09/16 09:05:52;;;;;;;6.03;1.20;;;21.90;73.80;;;;;;5054936;28;20083;-80
2021/09/16 09:08:26;;;;;;;5.40;1.20;;;22.00;68.60;;;;;;5053995;28;20021;-79
2021/09/16 09:11:00;;;;;;;4.63;1.10;;;21.70;69.80;;;;;;5053515;28;20021;-78
2021/09/16 09:13:28;;;;;;;6.20;1.10;;;21.40;72.60;;;;;;5053372;28;20493;-79
2021/09/16 09:16:11;;;;;;;8.50;1.58;;;21.20;71.10;;;;;;5054690;28;20377;-79
2021/09/16 09:18:46;;;;;;;6.22;1.30;;;21.20;74.10;;;;;;5053646;28;20376;-79
2021/09/16 09:21:15;;;;;;;3.25;1.00;;;21.20;74.70;;;;;;5053232;28;20033;-78
2021/09/16 09:23:54;;;;;;;5.97;0.90;;;21.30;75.50;;;;;;5053692;28;20025;-78
2021/09/16 09:26:33;;;;;;;2.13;0.65;;;21.40;75.30;;;;;;5054798;28;20041;-78
2021/09/16 09:29:08;;;;;;;4.15;1.00;;;21.50;75.90;;;;;;5053833;28;20339;-79
2021/09/16 09:31:36;;;;;;;4.95;1.50;;;21.60;74.40;;;;;;5053850;28;20025;-79
2021/09/16 09:34:26;;;;;;;3.28;0.75;;;21.80;71.10;;;;;;5053068;28;20527;-80
2021/09/16 09:37:04;;;;;;;6.55;1.10;;;21.80;73.50;;;;;;5052956;28;20074;-79
2021/09/16 09:39:29;;;;;;;3.85;1.20;;;21.70;69.80;;;;;;5053085;28;20075;-79
2021/09/16 09:42:14;;;;;;;4.05;1.20;;;21.60;71.20;;;;;;5054030;28;20448;-79
2021/09/16 09:44:39;;;;;;;4.15;1.02;;;21.40;73.70;;;;;;5052751;28;20025;-79
2021/09/16 09:47:05;;;;;;;4.45;1.23;;;21.30;70.70;;;;;;5052728;28;20021;-78
2021/09/16 09:49:34;;;;;;;3.65;1.20;;;21.30;72.50;;;;;;5052488;28;20485;-78
2021/09/16 09:52:01;;;;;;;5.20;1.20;;;21.50;67.60;;;;;;5054381;28;20107;-78
2021/09/16 09:54:32;;;;;;;3.70;1.05;;;21.80;70.50;;;;;;5054088;28;20060;-76
2021/09/16 09:57:06;;;;;;;4.65;1.00;;;21.90;71.00;;;;;;5053294;28;20021;-79
2021/09/16 09:59:51;;;;;;;4.55;1.00;;;21.90;70.00;;;;;;5053521;28;20191;-77
2021/09/16 10:02:18;;;;;;;3.85;0.98;;;21.90;69.10;;;;;;5053025;28;20033;-77
2021/09/16 10:04:44;;;;;;;7.70;1.20;;;22.10;71.50;;;;;;5053315;28;20565;-79
2021/09/16 10:07:22;;;;;;;6.88;1.42;;;22.50;71.50;;;;;;5054163;28;20374;-78
2021/09/16 10:09:56;;;;;;;5.20;1.13;;;22.90;71.20;;;;;;5054955;28;20036;-76
2021/09/16 10:12:21;;;;;;;4.80;1.50;;;23.30;68.30;;;;;;5070593;28;20049;-79
2021/09/16 10:14:47;;;;;;;13.45;2.20;;;23.40;61.60;;;;;;5058170;28;20040;-80
2021/09/16 10:17:13;;;;;;;4.28;1.40;;;23.30;64.50;;;;;;5054838;28;20022;-79
2021/09/16 10:19:41;;;;;;;5.47;1.42;;;23.40;64.90;;;;;;5052342;28;20052;-78
2021/09/16 10:22:12;;;;;;;4.70;1.10;;;23.60;64.20;;;;;;5053985;28;20036;-78
2021/09/16 10:24:38;;;;;;;7.28;1.15;;;23.80;66.40;;;;;;5053306;28;20029;-78
2021/09/16 10:27:34;;;;;;;7.32;1.48;;;24.00;60.40;;;;;;5053012;28;20500;-78
2021/09/16 10:30:32;;;;;;;4.60;1.52;;;24.00;62.60;;;;;;5053223;28;20025;-77
2021/09/16 10:33:23;;;;;;;4.93;1.08;;;24.00;59.70;;;;;;5042035;28;20095;-82
2021/09/16 10:35:58;;;;;;;4.55;1.00;;;24.20;60.60;;;;;;5034329;28;20481;-79
2021/09/16 10:38:41;;;;;;;6.45;1.10;;;24.30;61.40;;;;;;5035249;28;20026;-77
2021/09/16 10:41:14;;;;;;;5.38;1.58;;;24.40;62.20;;;;;;5034651;28;20486;-77
2021/09/16 10:43:42;;;;;;;3.30;1.23;;;24.50;64.10;;;;;;5033883;28;20120;-79
2021/09/16 10:46:41;;;;;;;5.78;1.40;;;24.50;55.70;;;;;;5035771;28;20045;-77
2021/09/16 10:49:20;;;;;;;5.68;1.40;;;24.30;64.00;;;;;;5033315;28;20375;-77
2021/09/16 10:51:50;;;;;;;3.92;1.30;;;24.30;61.90;;;;;;5037981;28;20025;-78
2021/09/16 10:54:28;;;;;;;3.55;1.38;;;24.20;59.10;;;;;;5031983;28;20389;-76
2021/09/16 10:57:00;;;;;;;4.03;1.20;;;24.00;59.10;;;;;;5033463;28;20017;-79
2021/09/16 10:59:53;;;;;;;3.15;1.10;;;24.00;55.90;;;;;;5032305;28;20026;-77
2021/09/16 11:02:26;;;;;;;3.40;1.17;;;24.10;61.40;;;;;;5031731;28;20112;-77
2021/09/16 11:04:54;;;;;;;5.45;1.52;;;24.20;61.50;;;;;;5032735;28;20043;-77
2021/09/16 11:07:34;;;;;;;4.45;1.50;;;24.50;62.60;;;;;;5030827;28;20025;-78
2021/09/16 11:10:21;;;;;;;5.35;1.38;;;24.60;62.10;;;;;;5031248;28;20021;-77
2021/09/16 11:12:50;;;;;;;5.15;1.15;;;24.50;57.80;;;;;;5046635;28;20094;-77
2021/09/16 11:15:37;;;;;;;4.22;1.40;;;24.30;62.90;;;;;;5052016;28;20102;-78
2021/09/16 11:18:04;;;;;;;4.07;1.40;;;24.00;56.20;;;;;;5053659;28;20025;-77
2021/09/16 11:20:31;;;;;;;3.80;1.38;;;23.80;57.30;;;;;;5051665;28;20071;-77
2021/09/16 11:22:56;;;;;;;3.55;1.10;;;24.00;64.70;;;;;;5051890;28;20021;-78
2021/09/16 11:25:22;;;;;;;4.47;1.20;;;24.20;63.90;;;;;;5052008;28;20033;-78
2021/09/16 11:27:53;;;;;;;3.70;0.80;;;24.30;62.10;;;;;;5053143;28;20029;-77
2021/09/16 11:30:20;;;;;;;18.42;2.22;;;24.40;66.40;;;;;;5050926;28;20021;-77
2021/09/16 11:32:45;;;;;;;5.45;1.30;;;24.30;62.70;;;;;;5053249;28;20025;-78
2021/09/16 11:35:16;;;;;;;6.88;1.58;;;24.00;58.50;;;;;;5053625;28;20036;-79
2021/09/16 11:37:44;;;;;;;5.25;1.10;;;23.90;61.10;;;;;;5057039;28;20029;-77
2021/09/16 11:40:22;;;;;;;2.55;0.88;;;23.80;59.40;;;;;;5058504;28;20052;-78
2021/09/16 11:42:51;;;;;;;5.70;1.38;;;24.00;67.20;;;;;;5057880;28;20063;-76
2021/09/16 11:45:28;;;;;;;3.37;1.00;;;24.20;58.50;;;;;;5056783;28;20363;-77
2021/09/16 11:47:59;;;;;;;5.40;1.20;;;24.10;57.60;;;;;;5057769;28;20123;-78
2021/09/16 11:50:25;;;;;;;3.00;0.80;;;24.10;58.60;;;;;;5056760;28;20351;-77
2021/09/16 11:52:57;;;;;;;5.47;1.42;;;24.00;63.60;;;;;;5056013;28;20116;-76
2021/09/16 11:55:23;;;;;;;3.55;1.33;;;23.80;63.80;;;;;;5055267;28;20504;-78
2021/09/16 11:57:59;;;;;;;4.10;1.10;;;23.80;59.10;;;;;;5055417;28;20025;-77
2021/09/16 12:00:31;;;;;;;4.10;1.20;;;23.80;58.20;;;;;;5055350;28;20428;-78
2021/09/16 12:02:56;;;;;;;2.90;1.20;;;23.80;61.20;;;;;;5055988;28;20535;-78
2021/09/16 12:05:36;;;;;;;3.30;1.30;;;23.80;59.30;;;;;;5054827;28;20114;-78
2021/09/16 12:08:04;;;;;;;5.07;1.50;;;24.20;58.20;;;;;;5055064;28;20063;-78
2021/09/16 12:10:41;;;;;;;3.67;0.80;;;24.60;57.30;;;;;;5055963;28;20114;-77
2021/09/16 12:13:18;;;;;;;4.85;1.25;;;24.90;64.00;;;;;;5055573;28;20025;-77
2021/09/16 12:15:46;;;;;;;6.15;1.35;;;25.10;59.50;;;;;;5054878;28;20028;-78
2021/09/16 12:18:12;;;;;;;4.13;1.10;;;24.90;55.00;;;;;;5055698;28;20405;-77
2021/09/16 12:20:40;;;;;;;3.97;1.13;;;24.60;55.50;;;;;;5051493;28;20025;-77
2021/09/16 12:23:10;;;;;;;4.35;1.15;;;24.30;63.90;;;;;;5035385;28;20471;-77
2021/09/16 12:26:07;;;;;;;3.53;0.70;;;24.00;63.30;;;;;;5035514;28;20033;-78
2021/09/16 12:28:53;;;;;;;4.78;1.02;;;23.80;56.80;;;;;;5011925;28;20060;-78
2021/09/16 12:31:28;;;;;;;3.25;0.80;;;23.60;62.90;;;;;;5034419;28;20121;-77
2021/09/16 12:34:00;;;;;;;5.30;1.40;;;23.40;57.30;;;;;;5035631;28;20101;-78
2021/09/16 12:36:27;;;;;;;1.45;0.85;;;23.60;58.40;;;;;;5033694;28;20136;-77
2021/09/16 12:39:00;;;;;;;2.08;0.90;;;24.00;58.80;;;;;;5035109;28;20105;-77
2021/09/16 12:41:56;;;;;;;3.38;0.95;;;24.40;56.50;;;;;;5033293;28;20088;-76
2021/09/16 12:44:33;;;;;;;4.53;1.33;;;24.50;63.60;;;;;;5028679;28;20045;-77
2021/09/16 12:47:06;;;;;;;2.17;0.90;;;24.40;65.50;;;;;;5033370;28;20036;-76
2021/09/16 12:49:34;;;;;;;4.00;1.63;;;24.60;62.20;;;;;;5033223;28;20495;-75